sensor_id;sensor_type;location;lat;lon;timestamp;temperature;humidity
5828;DHT22;42583;50.240;8.444;2023-02-03T00:07:39;5.10;99.90
5828;DHT22;42583;50.240;8.444;2023-02-03T00:22:39;5.20;99.90
5828;DHT22;42583;50.240;8.444;2023-02-03T01:08:19;5.20;99.90
5828;DHT22;42583;50.240;8.444;2023-02-03T01:23:29;5.10;99.90
5828;DHT22;42583;50.240;8.444;2023-02-03T01:38:40;5.10;99.90
5828;DHT22;42583;50.240;8.444;2023-02-03T01:53:49;5.10;99.90
5828;DHT22;42583;50.240;8.444;2023-02-03T02:08:56;5.20;99.90
5828;DHT22;42583;50.240;8.444;2023-02-03T02:39:28;5.20;99.90
5828;DHT22;42583;50.240;8.444;2023-02-03T02:54:32;5.20;99.90
5828;DHT22;42583;50.240;8.444;2023-02-03T03:09:50;5.30;99.90
5828;DHT22;42583;50.240;8.444;2023-02-03T03:24:56;5.30;99.90
5828;DHT22;42583;50.240;8.444;2023-02-03T03:40:29;5.30;99.90
5828;DHT22;42583;50.240;8.444;2023-02-03T04:27:03;5.30;99.90
5828;DHT22;42583;50.240;8.444;2023-02-03T04:42:04;5.30;99.90
5828;DHT22;42583;50.240;8.444;2023-02-03T04:57:07;5.30;99.90
5828;DHT22;42583;50.240;8.444;2023-02-03T05:12:11;5.20;99.90
5828;DHT22;42583;50.240;8.444;2023-02-03T05:27:18;5.20;99.90
5828;DHT22;42583;50.240;8.444;2023-02-03T05:42:19;5.20;99.90
5828;DHT22;42583;50.240;8.444;2023-02-03T05:57:19;5.10;99.90
5828;DHT22;42583;50.240;8.444;2023-02-03T06:12:20;5.10;99.90
5828;DHT22;42583;50.240;8.444;2023-02-03T06:27:21;5.10;99.90
5828;DHT22;42583;50.240;8.444;2023-02-03T06:42:22;5.10;99.90
5828;DHT22;42583;50.240;8.444;2023-02-03T06:57:25;5.10;99.90
5828;DHT22;42583;50.240;8.444;2023-02-03T07:12:25;5.20;99.90
5828;DHT22;42583;50.240;8.444;2023-02-03T07:27:26;5.20;99.90
5828;DHT22;42583;50.240;8.444;2023-02-03T07:42:27;5.30;99.90
5828;DHT22;42583;50.240;8.444;2023-02-03T07:57:30;5.30;99.90
5828;DHT22;42583;50.240;8.444;2023-02-03T08:12:31;5.30;99.90
5828;DHT22;42583;50.240;8.444;2023-02-03T08:27:31;5.30;99.90
5828;DHT22;42583;50.240;8.444;2023-02-03T08:42:35;5.40;99.90
5828;DHT22;42583;50.240;8.444;2023-02-03T08:57:56;5.50;99.90
5828;DHT22;42583;50.240;8.444;2023-02-03T09:13:11;5.60;99.90
5828;DHT22;42583;50.240;8.444;2023-02-03T09:28:12;5.60;99.90
5828;DHT22;42583;50.240;8.444;2023-02-03T10:29:37;6.00;99.90
5828;DHT22;42583;50.240;8.444;2023-02-03T10:44:44;6.20;99.90
5828;DHT22;42583;50.240;8.444;2023-02-03T10:59:46;6.10;99.90
5828;DHT22;42583;50.240;8.444;2023-02-03T11:14:51;6.00;99.90
5828;DHT22;42583;50.240;8.444;2023-02-03T11:30:06;5.90;99.90
5828;DHT22;42583;50.240;8.444;2023-02-03T11:45:24;5.80;99.90
5828;DHT22;42583;50.240;8.444;2023-02-03T12:30:56;5.80;99.90
5828;DHT22;42583;50.240;8.444;2023-02-03T12:46:05;5.90;99.90
5828;DHT22;42583;50.240;8.444;2023-02-03T13:01:16;6.00;99.90
5828;DHT22;42583;50.240;8.444;2023-02-03T13:16:24;6.00;99.90
5828;DHT22;42583;50.240;8.444;2023-02-03T13:31:55;6.10;99.90
5828;DHT22;42583;50.240;8.444;2023-02-03T13:47:01;6.10;99.90
5828;DHT22;42583;50.240;8.444;2023-02-03T14:32:57;6.30;99.90
5828;DHT22;42583;50.240;8.444;2023-02-03T14:48:09;6.40;99.90
5828;DHT22;42583;50.240;8.444;2023-02-03T15:03:17;6.40;99.90
5828;DHT22;42583;50.240;8.444;2023-02-03T15:33:29;6.60;99.90
5828;DHT22;42583;50.240;8.444;2023-02-03T15:48:48;6.60;99.90
5828;DHT22;42583;50.240;8.444;2023-02-03T16:03:52;6.60;99.90
5828;DHT22;42583;50.240;8.444;2023-02-03T16:18:58;6.60;99.90
5828;DHT22;42583;50.240;8.444;2023-02-03T16:34:02;6.60;99.90
5828;DHT22;42583;50.240;8.444;2023-02-03T16:49:25;6.60;99.90
5828;DHT22;42583;50.240;8.444;2023-02-03T17:04:45;6.60;99.90
5828;DHT22;42583;50.240;8.444;2023-02-03T17:19:45;6.60;99.90
5828;DHT22;42583;50.240;8.444;2023-02-03T17:34:46;6.50;99.90
5828;DHT22;42583;50.240;8.444;2023-02-03T17:49:46;6.50;99.90
5828;DHT22;42583;50.240;8.444;2023-02-03T18:04:47;6.40;99.90
5828;DHT22;42583;50.240;8.444;2023-02-03T18:19:48;6.20;99.90
5828;DHT22;42583;50.240;8.444;2023-02-03T18:34:48;6.00;99.90
5828;DHT22;42583;50.240;8.444;2023-02-03T18:49:49;5.90;99.90
5828;DHT22;42583;50.240;8.444;2023-02-03T19:04:50;5.70;99.90
5828;DHT22;42583;50.240;8.444;2023-02-03T19:19:51;5.60;99.90
5828;DHT22;42583;50.240;8.444;2023-02-03T19:34:51;5.60;99.90
5828;DHT22;42583;50.240;8.444;2023-02-03T19:49:54;5.60;99.90
5828;DHT22;42583;50.240;8.444;2023-02-03T20:04:55;5.60;99.90
5828;DHT22;42583;50.240;8.444;2023-02-03T20:19:56;5.60;99.90
5828;DHT22;42583;50.240;8.444;2023-02-03T20:34:57;5.60;99.90
5828;DHT22;42583;50.240;8.444;2023-02-03T20:49:59;5.50;99.90
5828;DHT22;42583;50.240;8.444;2023-02-03T21:05:01;5.50;99.90
5828;DHT22;42583;50.240;8.444;2023-02-03T21:20:30;5.40;99.90
5828;DHT22;42583;50.240;8.444;2023-02-03T21:35:36;5.30;99.90
5828;DHT22;42583;50.240;8.444;2023-02-03T21:50:37;5.30;99.90
5828;DHT22;42583;50.240;8.444;2023-02-03T22:05:41;5.20;99.90
5828;DHT22;42583;50.240;8.444;2023-02-03T22:20:41;5.20;99.90
5828;DHT22;42583;50.240;8.444;2023-02-03T22:35:42;5.20;99.90
5828;DHT22;42583;50.240;8.444;2023-02-03T22:50:42;5.10;99.90
5828;DHT22;42583;50.240;8.444;2023-02-03T23:05:43;5.10;99.90
5828;DHT22;42583;50.240;8.444;2023-02-03T23:20:43;5.10;99.90
5828;DHT22;42583;50.240;8.444;2023-02-03T23:35:44;5.10;99.90
5828;DHT22;42583;50.240;8.444;2023-02-03T23:50:44;5.10;99.90
